createdAt,value
2022-10-30T00:01:04.433Z,11.46
2022-10-30T00:03:39.723Z,11.44
2022-10-30T00:06:07.023Z,11.43
2022-10-30T00:08:39.106Z,11.45
2022-10-30T00:11:08.132Z,11.43
2022-10-30T00:13:38.736Z,11.42
2022-10-30T00:16:08.146Z,11.44
2022-10-30T00:18:37.160Z,11.49
2022-10-30T00:21:10.125Z,11.42
2022-10-30T00:23:37.596Z,11.43
2022-10-30T00:26:07.227Z,11.40
2022-10-30T00:28:34.678Z,11.39
2022-10-30T00:31:03.974Z,11.41
2022-10-30T00:33:31.996Z,11.41
2022-10-30T00:35:59.411Z,11.38
2022-10-30T00:38:26.908Z,11.42
2022-10-30T00:40:54.240Z,11.36
2022-10-30T00:43:36.189Z,11.37
2022-10-30T00:46:12.424Z,11.35
2022-10-30T00:48:42.729Z,11.35
2022-10-30T00:51:12.372Z,11.42
2022-10-30T00:53:40.767Z,11.38
2022-10-30T00:56:09.855Z,11.41
2022-10-30T00:58:42.552Z,11.42
2022-10-30T01:01:19.436Z,11.38
2022-10-30T01:03:52.831Z,11.37
2022-10-30T01:06:19.976Z,11.36
2022-10-30T01:08:48.572Z,11.41
2022-10-30T01:11:15.908Z,11.35
2022-10-30T01:13:45.934Z,11.34
2022-10-30T01:16:25.437Z,11.37
2022-10-30T01:19:18.280Z,11.34
2022-10-30T01:22:11.965Z,11.31
2022-10-30T01:24:57.610Z,11.28
2022-10-30T01:27:53.625Z,11.32
2022-10-30T01:30:46.877Z,11.27
2022-10-30T01:33:29.330Z,11.22
2022-10-30T01:36:11.414Z,11.24
2022-10-30T01:38:50.585Z,11.25
2022-10-30T01:41:18.114Z,11.23
2022-10-30T01:43:49.677Z,11.24
2022-10-30T01:46:17.045Z,11.26
2022-10-30T01:48:59.435Z,11.28
2022-10-30T01:51:36.345Z,11.28
2022-10-30T01:54:27.889Z,11.27
2022-10-30T01:57:00.164Z,11.29
2022-10-30T01:59:32.957Z,11.31
2022-10-30T02:02:00.238Z,11.30
2022-10-30T02:04:28.114Z,11.32
2022-10-30T02:06:55.399Z,11.29
2022-10-30T02:09:23.067Z,11.26
2022-10-30T02:11:52.859Z,11.24
2022-10-30T02:14:55.121Z,11.22
2022-10-30T02:17:28.148Z,11.23
2022-10-30T02:19:57.877Z,11.23
2022-10-30T02:22:25.176Z,11.25
2022-10-30T02:24:52.605Z,11.25
2022-10-30T02:27:23.342Z,11.21
2022-10-30T02:29:50.416Z,11.19
2022-10-30T02:32:17.415Z,11.20
2022-10-30T02:34:44.917Z,11.17
2022-10-30T02:37:13.820Z,11.17
2022-10-30T02:39:43.229Z,11.17
2022-10-30T02:42:10.438Z,11.17
2022-10-30T02:44:37.631Z,11.15
2022-10-30T02:47:04.678Z,11.13
2022-10-30T02:49:36.495Z,11.11
2022-10-30T02:52:03.589Z,11.07
2022-10-30T02:54:32.827Z,11.03
2022-10-30T02:56:59.989Z,11.01
2022-10-30T02:59:27.212Z,11.00
2022-10-30T03:01:54.458Z,10.98
2022-10-30T03:04:21.746Z,10.96
2022-10-30T03:06:48.889Z,10.96
2022-10-30T03:09:15.937Z,10.95
2022-10-30T03:11:44.635Z,10.94
2022-10-30T03:14:14.970Z,10.95
2022-10-30T03:16:43.440Z,10.90
2022-10-30T03:19:10.584Z,10.88
2022-10-30T03:21:37.591Z,10.86
2022-10-30T03:24:05.683Z,10.83
2022-10-30T03:26:38.941Z,10.83
2022-10-30T03:29:07.767Z,10.82
2022-10-30T03:31:37.575Z,10.85
2022-10-30T03:34:18.330Z,10.84
2022-10-30T03:36:45.291Z,10.82
2022-10-30T03:39:13.271Z,10.85
2022-10-30T03:41:43.678Z,10.81
2022-10-30T03:44:10.710Z,10.81
2022-10-30T03:46:38.533Z,10.81
2022-10-30T03:49:23.463Z,10.78
2022-10-30T03:51:50.405Z,10.79
2022-10-30T03:54:18.689Z,10.80
2022-10-30T03:56:46.340Z,10.80
2022-10-30T03:59:16.368Z,10.82
2022-10-30T04:01:52.381Z,10.79
2022-10-30T04:04:19.891Z,10.78
2022-10-30T04:06:48.127Z,10.78
2022-10-30T04:09:21.137Z,10.77
2022-10-30T04:11:48.326Z,10.75
2022-10-30T04:14:15.516Z,10.77
2022-10-30T04:16:45.240Z,10.78
2022-10-30T04:19:14.521Z,10.77
2022-10-30T04:21:43.780Z,10.74
2022-10-30T04:24:16.186Z,10.75
2022-10-30T04:26:45.236Z,10.73
2022-10-30T04:29:15.127Z,10.74
2022-10-30T04:31:42.783Z,10.70
2022-10-30T04:34:09.994Z,10.70
2022-10-30T04:36:37.284Z,10.71
2022-10-30T04:39:04.550Z,10.71
2022-10-30T04:41:33.238Z,10.68
2022-10-30T04:44:05.987Z,10.66
2022-10-30T04:46:33.279Z,10.66
2022-10-30T04:49:08.008Z,10.69
2022-10-30T04:51:37.804Z,10.68
2022-10-30T04:54:06.789Z,10.69
2022-10-30T04:56:38.240Z,10.69
2022-10-30T04:59:05.840Z,10.69
2022-10-30T05:01:33.177Z,10.71
2022-10-30T05:04:02.950Z,10.74
2022-10-30T05:06:31.692Z,10.75
2022-10-30T05:08:58.969Z,10.75
2022-10-30T05:11:46.229Z,10.74
2022-10-30T05:14:14.001Z,10.74
2022-10-30T05:16:44.857Z,10.72
2022-10-30T05:19:12.281Z,10.73
2022-10-30T05:21:43.437Z,10.70
2022-10-30T05:24:10.866Z,10.69
2022-10-30T05:26:43.224Z,10.67
2022-10-30T05:29:13.065Z,10.69
2022-10-30T05:31:40.615Z,10.69
2022-10-30T05:34:18.930Z,10.70
2022-10-30T05:36:49.869Z,10.67
2022-10-30T05:39:18.284Z,10.69
2022-10-30T05:41:48.825Z,10.71
2022-10-30T05:44:34.397Z,10.73
2022-10-30T05:47:11.020Z,10.76
2022-10-30T05:49:41.573Z,10.73
2022-10-30T05:52:13.334Z,10.75
2022-10-30T05:54:42.926Z,10.72
2022-10-30T05:57:33.270Z,10.74
2022-10-30T06:00:01.411Z,10.73
2022-10-30T06:02:29.520Z,10.74
2022-10-30T06:04:57.072Z,10.74
2022-10-30T06:07:26.572Z,10.73
2022-10-30T06:09:54.432Z,10.77
2022-10-30T06:13:02.274Z,10.77
2022-10-30T06:15:43.254Z,10.78
2022-10-30T06:18:13.389Z,10.77
2022-10-30T06:20:46.077Z,10.71
2022-10-30T06:23:34.439Z,10.78
2022-10-30T06:26:11.241Z,10.77
2022-10-30T06:28:50.111Z,10.78
2022-10-30T06:31:17.170Z,10.82
2022-10-30T06:33:44.409Z,10.82
2022-10-30T06:36:13.821Z,10.82
2022-10-30T06:38:41.412Z,10.83
2022-10-30T06:41:10.012Z,10.88
2022-10-30T06:44:06.449Z,10.89
2022-10-30T06:46:36.371Z,10.92
2022-10-30T06:49:03.398Z,10.92
2022-10-30T06:51:32.220Z,10.82
2022-10-30T06:54:00.417Z,10.92
2022-10-30T06:56:39.857Z,10.91
2022-10-30T06:59:15.462Z,10.89
2022-10-30T07:01:55.660Z,10.92
2022-10-30T07:04:29.214Z,10.99
2022-10-30T07:06:59.154Z,11.01
2022-10-30T07:09:30.419Z,11.04
2022-10-30T07:12:00.378Z,11.07
2022-10-30T07:14:59.698Z,11.11
2022-10-30T07:17:37.766Z,11.08
2022-10-30T07:20:11.797Z,11.13
2022-10-30T07:22:39.294Z,11.18
2022-10-30T07:25:08.111Z,11.22
2022-10-30T07:27:55.734Z,11.23
2022-10-30T07:30:41.542Z,11.25
2022-10-30T07:33:46.818Z,11.33
2022-10-30T07:36:20.833Z,11.33
2022-10-30T07:39:03.911Z,11.43
2022-10-30T07:41:35.681Z,11.45
2022-10-30T07:44:35.285Z,11.48
2022-10-30T07:47:25.593Z,11.52
2022-10-30T07:50:01.659Z,11.56
2022-10-30T07:52:33.828Z,11.45
2022-10-30T07:55:01.277Z,11.46
2022-10-30T07:57:49.704Z,11.46
2022-10-30T08:00:35.586Z,11.48
2022-10-30T08:03:13.997Z,11.47
2022-10-30T08:05:49.820Z,11.47
2022-10-30T08:08:28.743Z,11.43
2022-10-30T08:11:10.176Z,11.48
2022-10-30T08:13:37.278Z,11.47
2022-10-30T08:16:04.785Z,11.35
2022-10-30T08:18:34.347Z,11.34
2022-10-30T08:21:02.188Z,11.38
2022-10-30T08:23:29.342Z,11.37
2022-10-30T08:26:01.476Z,11.35
2022-10-30T08:28:32.807Z,11.28
2022-10-30T08:31:02.818Z,11.40
2022-10-30T08:33:49.759Z,11.49
2022-10-30T08:36:30.537Z,11.57
2022-10-30T08:38:58.566Z,11.68
2022-10-30T08:41:45.192Z,11.64
2022-10-30T08:44:14.885Z,11.59
2022-10-30T08:47:10.933Z,11.73
2022-10-30T08:49:39.735Z,11.78
2022-10-30T08:52:10.696Z,11.87
2022-10-30T08:54:38.991Z,11.87
2022-10-30T08:57:06.681Z,11.86
2022-10-30T08:59:33.700Z,11.84
2022-10-30T09:02:01.988Z,11.94
2022-10-30T09:04:47.694Z,12.01
2022-10-30T09:07:33.840Z,12.03
2022-10-30T09:10:38.705Z,11.98
2022-10-30T09:13:06.059Z,11.96
2022-10-30T09:15:33.655Z,11.91
2022-10-30T09:18:03.383Z,12.07
2022-10-30T09:20:34.894Z,12.17
2022-10-30T09:23:02.509Z,12.22
2022-10-30T09:25:30.449Z,12.30
2022-10-30T09:28:19.245Z,12.40
2022-10-30T09:31:21.406Z,12.55
2022-10-30T09:33:50.689Z,12.51
2022-10-30T09:36:48.982Z,12.55
2022-10-30T09:39:17.394Z,12.58
2022-10-30T09:42:13.697Z,12.72
2022-10-30T09:45:15.182Z,12.74
2022-10-30T09:47:58.505Z,12.89
2022-10-30T09:50:40.478Z,12.96
2022-10-30T09:53:34.263Z,12.95
2022-10-30T09:56:17.623Z,12.85
2022-10-30T09:58:52.601Z,12.89
2022-10-30T10:01:31.946Z,12.90
2022-10-30T10:04:12.964Z,12.91
2022-10-30T10:06:47.794Z,12.96
2022-10-30T10:09:32.696Z,13.02
2022-10-30T10:12:16.151Z,12.81
2022-10-30T10:14:47.517Z,12.81
2022-10-30T10:17:24.355Z,12.72
2022-10-30T10:19:59.554Z,12.76
2022-10-30T10:22:34.453Z,12.72
2022-10-30T10:25:03.854Z,12.76
2022-10-30T10:27:47.265Z,12.83
2022-10-30T10:30:18.633Z,12.82
2022-10-30T10:32:48.521Z,12.87
2022-10-30T10:35:36.487Z,12.81
2022-10-30T10:38:03.479Z,12.84
2022-10-30T10:40:54.191Z,12.93
2022-10-30T10:43:22.335Z,12.96
2022-10-30T10:46:10.604Z,13.04
2022-10-30T10:49:22.788Z,12.92
2022-10-30T10:52:11.889Z,12.95
2022-10-30T10:54:55.982Z,12.93
2022-10-30T10:57:33.615Z,12.96
2022-10-30T11:00:07.150Z,13.01
2022-10-30T11:02:46.217Z,12.97
2022-10-30T11:05:24.688Z,13.00
2022-10-30T11:07:53.308Z,13.01
2022-10-30T11:10:23.869Z,13.00
2022-10-30T11:12:51.146Z,12.92
2022-10-30T11:15:21.990Z,12.98
2022-10-30T11:18:10.245Z,13.10
2022-10-30T11:20:49.726Z,13.07
2022-10-30T11:23:42.171Z,13.16
2022-10-30T11:26:18.665Z,13.16
2022-10-30T11:29:14.498Z,13.11
2022-10-30T11:31:43.273Z,13.15
2022-10-30T11:34:19.457Z,13.06
2022-10-30T11:36:51.799Z,13.16
2022-10-30T11:39:24.529Z,13.26
2022-10-30T11:42:15.717Z,13.37
2022-10-30T11:44:48.080Z,13.31
2022-10-30T11:47:23.754Z,13.20
2022-10-30T11:49:53.711Z,13.23
2022-10-30T11:52:24.985Z,13.22
2022-10-30T11:54:57.320Z,13.24
2022-10-30T11:57:38.592Z,13.23
2022-10-30T12:00:18.224Z,13.26
2022-10-30T12:02:48.837Z,13.25
2022-10-30T12:05:43.639Z,13.29
2022-10-30T12:08:21.557Z,13.25
2022-10-30T12:10:57.259Z,13.08
2022-10-30T12:13:26.148Z,13.10
2022-10-30T12:16:05.473Z,13.02
2022-10-30T12:18:33.765Z,12.80
2022-10-30T12:21:02.360Z,12.88
2022-10-30T12:23:32.860Z,12.88
2022-10-30T12:26:07.662Z,12.93
2022-10-30T12:28:35.176Z,12.93
2022-10-30T12:31:20.750Z,12.96
2022-10-30T12:34:04.147Z,12.90
2022-10-30T12:36:40.030Z,12.95
2022-10-30T12:39:30.932Z,12.93
2022-10-30T12:42:10.547Z,12.84
2022-10-30T12:44:46.993Z,12.91
2022-10-30T12:47:33.087Z,12.79
2022-10-30T12:50:13.492Z,12.82
2022-10-30T12:52:49.621Z,12.83
2022-10-30T12:55:24.002Z,12.84
2022-10-30T12:58:05.196Z,12.78
2022-10-30T13:00:40.886Z,12.77
2022-10-30T13:03:26.778Z,12.77
2022-10-30T13:05:57.160Z,12.73
2022-10-30T13:08:55.877Z,12.71
2022-10-30T13:11:40.039Z,12.70
2022-10-30T13:14:15.188Z,12.76
2022-10-30T13:16:42.218Z,12.71
2022-10-30T13:19:11.884Z,12.63
2022-10-30T13:21:53.045Z,12.64
2022-10-30T13:24:32.329Z,12.67
2022-10-30T13:27:09.838Z,12.62
2022-10-30T13:29:54.400Z,12.68
2022-10-30T13:32:36.207Z,12.66
2022-10-30T13:35:42.421Z,12.66
2022-10-30T13:38:39.458Z,12.58
2022-10-30T13:41:21.973Z,12.53
2022-10-30T13:44:13.816Z,12.57
2022-10-30T13:46:53.174Z,12.57
2022-10-30T13:50:04.714Z,12.64
2022-10-30T13:52:36.452Z,12.61
2022-10-30T13:55:23.761Z,12.56
2022-10-30T13:58:04.121Z,12.50
2022-10-30T14:00:50.516Z,12.51
2022-10-30T14:03:53.586Z,12.56
2022-10-30T14:06:33.756Z,12.57
2022-10-30T14:09:23.732Z,12.58
2022-10-30T14:11:54.203Z,12.46
2022-10-30T14:14:31.479Z,12.41
2022-10-30T14:17:16.126Z,12.43
2022-10-30T14:20:10.565Z,12.41
2022-10-30T14:22:41.128Z,12.36
2022-10-30T14:25:16.281Z,12.32
2022-10-30T14:27:55.839Z,12.32
2022-10-30T14:30:27.248Z,12.31
2022-10-30T14:32:55.129Z,12.28
2022-10-30T14:35:38.427Z,12.26
2022-10-30T14:38:08.396Z,12.23
2022-10-30T14:41:07.079Z,12.19
2022-10-30T14:43:49.603Z,12.16
2022-10-30T14:46:48.874Z,12.15
2022-10-30T14:49:41.358Z,12.12
2022-10-30T14:52:37.667Z,12.10
2022-10-30T14:55:26.400Z,12.06
2022-10-30T14:58:02.727Z,12.04
2022-10-30T15:00:35.775Z,12.01
2022-10-30T15:03:21.245Z,11.98
2022-10-30T15:06:02.437Z,11.91
2022-10-30T15:08:51.917Z,11.85
2022-10-30T15:11:31.219Z,11.84
2022-10-30T15:14:12.510Z,11.85
2022-10-30T15:16:52.039Z,11.79
2022-10-30T15:19:25.037Z,11.83
2022-10-30T15:21:54.851Z,11.80
2022-10-30T15:24:32.109Z,11.80
2022-10-30T15:27:01.379Z,11.80
2022-10-30T15:29:36.790Z,11.86
2022-10-30T15:32:16.375Z,11.85
2022-10-30T15:35:20.574Z,11.83
2022-10-30T15:38:02.575Z,11.79
2022-10-30T15:40:33.483Z,11.69
2022-10-30T15:43:07.264Z,11.66
2022-10-30T15:45:42.668Z,11.69
2022-10-30T15:48:24.501Z,11.67
2022-10-30T15:51:06.854Z,11.68
2022-10-30T15:53:42.914Z,11.71
2022-10-30T15:56:29.107Z,11.70
2022-10-30T15:59:01.477Z,11.67
2022-10-30T16:01:37.247Z,11.72
2022-10-30T16:04:14.308Z,11.71
2022-10-30T16:06:55.949Z,11.72
2022-10-30T16:09:24.831Z,11.69
2022-10-30T16:11:56.654Z,11.70
2022-10-30T16:14:32.762Z,11.69
2022-10-30T16:17:00.939Z,11.68
2022-10-30T16:19:31.753Z,11.67
2022-10-30T16:22:00.184Z,11.70
2022-10-30T16:24:36.500Z,11.69
2022-10-30T16:27:19.556Z,11.66
2022-10-30T16:29:50.154Z,11.67
2022-10-30T16:32:24.962Z,11.68
2022-10-30T16:34:57.003Z,11.68
2022-10-30T16:37:33.620Z,11.68
2022-10-30T16:40:12.735Z,11.69
2022-10-30T16:42:44.857Z,11.73
2022-10-30T16:45:13.645Z,11.70
2022-10-30T16:47:47.618Z,11.74
2022-10-30T16:50:17.500Z,11.73
2022-10-30T16:52:46.177Z,11.73
2022-10-30T16:55:25.153Z,11.75
2022-10-30T16:57:58.391Z,11.72
2022-10-30T17:00:36.538Z,11.72
2022-10-30T17:03:11.270Z,11.74
2022-10-30T17:05:48.530Z,11.75
2022-10-30T17:08:21.714Z,11.76
2022-10-30T17:10:59.853Z,11.79
2022-10-30T17:13:32.443Z,11.80
2022-10-30T17:16:27.702Z,11.84
2022-10-30T17:18:59.095Z,11.83
2022-10-30T17:21:40.005Z,11.85
2022-10-30T17:24:28.442Z,11.86
2022-10-30T17:26:59.463Z,11.81
2022-10-30T17:29:43.738Z,11.82
2022-10-30T17:32:25.676Z,11.84
2022-10-30T17:35:13.920Z,11.88
2022-10-30T17:37:42.887Z,11.85
2022-10-30T17:40:13.248Z,11.81
2022-10-30T17:42:44.829Z,11.81
2022-10-30T17:45:14.926Z,11.84
2022-10-30T17:47:43.670Z,11.83
2022-10-30T17:50:14.584Z,11.84
2022-10-30T17:52:47.660Z,11.85
2022-10-30T17:55:37.055Z,11.85
2022-10-30T17:58:05.424Z,11.86
2022-10-30T18:00:33.565Z,11.86
2022-10-30T18:03:01.827Z,11.89
2022-10-30T18:05:31.724Z,11.92
2022-10-30T18:07:59.873Z,11.93
2022-10-30T18:10:28.533Z,11.92
2022-10-30T18:12:57.513Z,11.91
2022-10-30T18:15:37.587Z,11.92
2022-10-30T18:18:08.802Z,11.88
2022-10-30T18:20:40.309Z,11.88
2022-10-30T18:23:50.433Z,11.85
2022-10-30T18:26:18.064Z,11.86
2022-10-30T18:28:47.460Z,11.87
2022-10-30T18:31:23.640Z,11.84
2022-10-30T18:33:52.044Z,11.80
2022-10-30T18:36:25.469Z,11.79
2022-10-30T18:38:55.051Z,11.80
2022-10-30T18:41:37.612Z,11.77
2022-10-30T18:44:06.257Z,11.77
2022-10-30T18:46:37.323Z,11.77
2022-10-30T18:49:06.224Z,11.79
2022-10-30T18:51:35.342Z,11.75
2022-10-30T18:54:09.028Z,11.71
2022-10-30T18:56:37.868Z,11.69
2022-10-30T18:59:06.537Z,11.71
2022-10-30T19:01:35.900Z,11.69
2022-10-30T19:04:09.860Z,11.66
2022-10-30T19:06:39.316Z,11.66
2022-10-30T19:09:07.911Z,11.64
2022-10-30T19:11:44.178Z,11.61
2022-10-30T19:14:15.675Z,11.57
2022-10-30T19:16:44.209Z,11.61
2022-10-30T19:19:15.472Z,11.56
2022-10-30T19:21:48.545Z,11.57
2022-10-30T19:24:18.421Z,11.55
2022-10-30T19:26:48.646Z,11.50
2022-10-30T19:29:17.792Z,11.51
2022-10-30T19:31:48.329Z,11.50
2022-10-30T19:34:17.747Z,11.51
2022-10-30T19:36:48.337Z,11.52
2022-10-30T19:39:19.898Z,11.51
2022-10-30T19:41:48.792Z,11.55
2022-10-30T19:44:17.987Z,11.47
2022-10-30T19:46:45.894Z,11.49
2022-10-30T19:49:19.729Z,11.49
2022-10-30T19:51:50.850Z,11.49
2022-10-30T19:54:22.265Z,11.49
2022-10-30T19:56:50.593Z,11.48
2022-10-30T19:59:18.921Z,11.47
2022-10-30T20:01:47.715Z,11.56
2022-10-30T20:04:17.094Z,11.54
2022-10-30T20:06:45.297Z,11.49
2022-10-30T20:09:15.835Z,11.48
2022-10-30T20:11:43.864Z,11.48
2022-10-30T20:14:12.052Z,11.47
2022-10-30T20:16:43.150Z,11.46
2022-10-30T20:19:32.200Z,11.50
2022-10-30T20:22:00.819Z,11.49
2022-10-30T20:24:30.205Z,11.50
2022-10-30T20:27:00.524Z,11.47
2022-10-30T20:29:29.109Z,11.47
2022-10-30T20:31:57.284Z,11.49
2022-10-30T20:34:25.113Z,11.46
2022-10-30T20:36:53.221Z,11.51
2022-10-30T20:39:23.936Z,11.50
2022-10-30T20:41:52.521Z,11.49
2022-10-30T20:44:20.634Z,11.53
2022-10-30T20:46:52.109Z,11.57
2022-10-30T20:49:21.546Z,11.56
2022-10-30T20:51:49.385Z,11.57
2022-10-30T20:54:19.152Z,11.60
2022-10-30T20:56:46.717Z,11.62
2022-10-30T20:59:14.231Z,11.59
2022-10-30T21:01:42.412Z,11.64
2022-10-30T21:04:10.085Z,11.61
2022-10-30T21:06:38.172Z,11.63
2022-10-30T21:09:08.977Z,11.63
2022-10-30T21:11:39.202Z,11.60
2022-10-30T21:14:06.913Z,11.60
2022-10-30T21:16:34.579Z,11.57
2022-10-30T21:19:03.302Z,11.57
2022-10-30T21:21:33.169Z,11.58
2022-10-30T21:24:00.225Z,11.57
2022-10-30T21:26:32.085Z,11.54
2022-10-30T21:29:02.850Z,11.53
2022-10-30T21:31:30.162Z,11.55
2022-10-30T21:33:57.472Z,11.51
2022-10-30T21:36:25.189Z,11.51
2022-10-30T21:38:52.190Z,11.50
2022-10-30T21:41:22.001Z,11.50
2022-10-30T21:43:55.608Z,11.45
2022-10-30T21:46:24.944Z,11.46
2022-10-30T21:48:54.533Z,11.51
2022-10-30T21:51:24.347Z,11.47
2022-10-30T21:53:51.842Z,11.43
2022-10-30T21:56:21.947Z,11.42
2022-10-30T21:58:49.296Z,11.41
2022-10-30T22:01:21.003Z,11.40
2022-10-30T22:03:48.913Z,11.37
2022-10-30T22:06:18.191Z,11.35
2022-10-30T22:08:46.810Z,11.30
2022-10-30T22:11:15.734Z,11.27
2022-10-30T22:13:42.843Z,11.26
2022-10-30T22:16:12.629Z,11.26
2022-10-30T22:18:40.439Z,11.26
2022-10-30T22:21:09.954Z,11.24
2022-10-30T22:23:37.935Z,11.22
2022-10-30T22:26:08.628Z,11.20
2022-10-30T22:28:38.382Z,11.22
2022-10-30T22:31:10.350Z,11.25
2022-10-30T22:33:38.109Z,11.27
2022-10-30T22:36:08.040Z,11.29
2022-10-30T22:38:35.465Z,11.30
2022-10-30T22:41:16.121Z,11.30
2022-10-30T22:43:44.551Z,11.30
2022-10-30T22:46:12.686Z,11.33
2022-10-30T22:48:40.053Z,11.30
2022-10-30T22:51:13.498Z,11.30
2022-10-30T22:53:47.988Z,11.30
2022-10-30T22:56:23.207Z,11.30
2022-10-30T22:58:51.986Z,11.26
2022-10-30T23:01:23.537Z,11.27
2022-10-30T23:03:55.933Z,11.25
2022-10-30T23:06:23.755Z,11.25
2022-10-30T23:08:55.899Z,11.25
2022-10-30T23:11:25.622Z,11.22
2022-10-30T23:13:53.081Z,11.26
2022-10-30T23:16:22.660Z,11.26
2022-10-30T23:18:51.952Z,11.21
2022-10-30T23:21:22.138Z,11.20
2022-10-30T23:23:50.022Z,11.20
2022-10-30T23:26:22.190Z,11.22
2022-10-30T23:28:51.270Z,11.23
2022-10-30T23:31:21.421Z,11.24
2022-10-30T23:33:50.015Z,11.23
2022-10-30T23:36:17.624Z,11.21
2022-10-30T23:38:44.925Z,11.19
2022-10-30T23:41:14.390Z,11.20
2022-10-30T23:43:41.620Z,11.17
2022-10-30T23:46:08.793Z,11.16
2022-10-30T23:48:36.196Z,11.21
2022-10-30T23:51:07.758Z,11.20
2022-10-30T23:53:35.082Z,11.19
2022-10-30T23:56:03.109Z,11.22
2022-10-30T23:58:30.311Z,11.19
